Pagrindinis puslapis
METAR-TAF:

METAR-TAF

Oro uostai :

Burlengė, Švedija

platuma: 60-26N, ilguma: 015-31E, Aukštis: 145 m

Dabartinis oras

Ataskaita buvo paskelbta 37 minutes, ne 04:20 UTC
Vėjas 3 kt iš Vakarų/Pietvakarių
Temperatūra -12°C
Drėgmė 92%
Slėgis 1000 hPa
Matomumas 10 km arba daugiau

METAR: ESSD 280420Z AUTO 25003KT 9999 NCD M12/M13 Q1000

Laikas: 05:57 (04:57 UTC)

Prognozė

Ataskaita buvo paskelbta 17 valandos ir 27 minutes, ne 11:30 UTC
Prognozė galioja nuo 27 metu 12 UTC su 27 metu 16 UTC
Vėjas 5 kt iš Šiaurės Vakarų
Matomumas 10 km arba daugiau
nėra debesų žemiau 1500 m ir nėra kamuolinių lietaus debesų

TAF: ESSD 271130Z 2712/2716 31005KT CAVOK

Orai ataskaitas ir orų prognozės (METAR, TAF).

turimą stotys yra geltonos ir raudonos taškus žemėlapyje.

Perkelti pele per norėdami pamatyti stoties vardą.

Tada spustelėkite, norėdami matyti oro stebėjimo ir prognozės.

Norėdami pakeisti žemėlapį: spustelėkite ant žalios mygtukų su juodo kryžiaus žemyn,; žalią mygtuką su brūkšneliu, jei norite nutolinti; arba žalių rodyklių gretimoms žemėlapius.


METAR-TAF: